createdAt,value
2019-05-18T00:00:07.766Z,13.10
2019-05-18T00:02:37.171Z,13.03
2019-05-18T00:05:07.179Z,12.07
2019-05-18T00:07:36.515Z,11.73
2019-05-18T00:10:06.190Z,11.33
2019-05-18T00:12:35.827Z,11.77
2019-05-18T00:15:05.150Z,12.30
2019-05-18T00:17:34.521Z,11.83
2019-05-18T00:20:04.355Z,11.93
2019-05-18T00:22:33.732Z,11.40
2019-05-18T00:25:03.157Z,10.93
2019-05-18T00:27:32.642Z,11.37
2019-05-18T00:30:02.071Z,11.30
2019-05-18T00:32:31.452Z,11.47
2019-05-18T00:35:00.769Z,11.33
2019-05-18T00:37:30.160Z,11.20
2019-05-18T00:39:59.598Z,11.50
2019-05-18T00:42:28.960Z,12.30
2019-05-18T00:44:58.527Z,12.43
2019-05-18T00:47:40.316Z,12.10
2019-05-18T00:49:59.179Z,12.97
2019-05-18T00:52:28.657Z,13.93
2019-05-18T00:54:58.066Z,13.73
2019-05-18T00:57:27.410Z,13.23
2019-05-18T00:59:56.835Z,13.47
2019-05-18T01:02:26.254Z,13.83
2019-05-18T01:04:55.658Z,14.97
2019-05-18T01:07:25.088Z,13.60
2019-05-18T01:09:54.524Z,14.33
2019-05-18T01:12:23.988Z,14.03
2019-05-18T01:14:53.475Z,13.93
2019-05-18T01:17:22.742Z,13.43
2019-05-18T01:19:52.575Z,13.63
2019-05-18T01:22:21.956Z,13.60
2019-05-18T01:24:51.835Z,13.03
2019-05-18T01:27:21.190Z,13.27
2019-05-18T01:29:50.491Z,13.30
2019-05-18T01:32:19.919Z,13.63
2019-05-18T01:34:49.286Z,13.47
2019-05-18T01:37:18.658Z,13.70
2019-05-18T01:39:48.041Z,12.97
2019-05-18T01:42:17.494Z,12.97
2019-05-18T01:44:46.808Z,13.40
2019-05-18T01:47:16.178Z,14.13
2019-05-18T01:49:45.699Z,13.10
2019-05-18T01:52:15.087Z,13.17
2019-05-18T01:54:44.455Z,13.30
2019-05-18T01:57:13.862Z,13.50
2019-05-18T01:59:43.266Z,13.50
2019-05-18T02:02:12.695Z,12.60
2019-05-18T02:04:42.259Z,13.07
2019-05-18T02:07:11.500Z,13.07
2019-05-18T02:09:40.835Z,12.40
2019-05-18T02:12:10.139Z,12.83
2019-05-18T02:14:39.578Z,12.30
2019-05-18T02:17:08.885Z,13.60
2019-05-18T02:19:38.243Z,12.57
2019-05-18T02:22:07.817Z,13.30
2019-05-18T02:24:37.214Z,13.17
2019-05-18T02:27:06.624Z,12.53
2019-05-18T02:29:36.024Z,12.03
2019-05-18T02:32:05.342Z,12.17
2019-05-18T02:34:34.807Z,12.37
2019-05-18T02:37:04.124Z,13.50
2019-05-18T02:39:33.506Z,12.23
2019-05-18T02:42:02.914Z,13.40
2019-05-18T02:44:32.295Z,13.20
2019-05-18T02:47:01.683Z,12.90
2019-05-18T02:49:31.120Z,13.40
2019-05-18T02:52:00.601Z,12.43
2019-05-18T02:54:29.900Z,13.53
2019-05-18T02:56:59.330Z,13.83
2019-05-18T02:59:28.778Z,13.63
2019-05-18T03:01:58.320Z,13.33
2019-05-18T03:04:27.673Z,13.30
2019-05-18T03:06:57.067Z,13.53
2019-05-18T03:09:26.592Z,13.93
2019-05-18T03:11:56.017Z,15.00
2019-05-18T03:14:25.358Z,14.10
2019-05-18T03:16:55.038Z,13.10
2019-05-18T03:19:24.255Z,13.33
2019-05-18T03:21:53.575Z,12.83
2019-05-18T03:24:22.863Z,13.17
2019-05-18T03:26:52.261Z,12.77
2019-05-18T03:29:21.546Z,13.80
2019-05-18T03:31:50.944Z,12.97
2019-05-18T03:34:20.519Z,12.80
2019-05-18T03:36:49.848Z,14.47
2019-05-18T03:39:19.217Z,14.03
2019-05-18T03:41:48.593Z,13.60
2019-05-18T03:44:17.970Z,12.97
2019-05-18T03:46:47.409Z,12.67
2019-05-18T03:49:26.455Z,14.20
2019-05-18T03:51:47.692Z,13.50
2019-05-18T03:54:17.007Z,14.53
2019-05-18T03:56:46.304Z,15.77
2019-05-18T03:59:15.620Z,14.87
2019-05-18T04:01:44.975Z,15.87
2019-05-18T04:04:18.308Z,16.47
2019-05-18T04:06:45.414Z,16.03
2019-05-18T04:09:14.735Z,17.10
2019-05-18T04:11:44.291Z,15.97
2019-05-18T04:14:14.389Z,15.73
2019-05-18T04:16:43.697Z,15.63
2019-05-18T04:19:13.181Z,15.70
2019-05-18T04:21:42.701Z,14.87
2019-05-18T04:24:12.129Z,15.40
2019-05-18T04:26:41.560Z,15.30
2019-05-18T04:29:11.012Z,16.33
2019-05-18T04:31:40.298Z,16.07
2019-05-18T04:34:09.660Z,15.80
2019-05-18T04:36:38.917Z,15.87
2019-05-18T04:39:08.202Z,16.47
2019-05-18T04:41:37.543Z,16.07
2019-05-18T04:44:06.947Z,16.57
2019-05-18T04:46:36.251Z,16.33
2019-05-18T04:49:05.564Z,16.00
2019-05-18T04:51:34.923Z,15.87
2019-05-18T04:54:04.274Z,15.97
2019-05-18T04:56:33.645Z,16.97
2019-05-18T04:59:02.917Z,17.00
2019-05-18T05:01:32.391Z,18.60
2019-05-18T05:04:01.712Z,17.47
2019-05-18T05:06:31.090Z,17.83
2019-05-18T05:09:00.490Z,17.97
2019-05-18T05:11:29.854Z,20.77
2019-05-18T05:13:59.213Z,18.13
2019-05-18T05:16:28.610Z,17.97
2019-05-18T05:18:57.962Z,18.13
2019-05-18T05:21:27.688Z,19.10
2019-05-18T05:23:57.071Z,18.57
2019-05-18T05:26:26.462Z,18.03
2019-05-18T05:28:55.758Z,19.50
2019-05-18T05:31:25.065Z,19.23
2019-05-18T05:33:54.436Z,18.57
2019-05-18T05:36:23.834Z,18.93
2019-05-18T05:38:53.170Z,18.17
2019-05-18T05:41:22.596Z,18.80
2019-05-18T05:43:51.922Z,18.67
2019-05-18T05:46:21.287Z,19.57
2019-05-18T05:48:50.682Z,17.40
2019-05-18T05:51:20.065Z,16.90
2019-05-18T05:53:49.433Z,16.27
2019-05-18T05:56:18.742Z,15.97
2019-05-18T05:58:48.236Z,15.87
2019-05-18T06:01:17.719Z,14.60
2019-05-18T06:03:47.100Z,15.53
2019-05-18T06:06:16.451Z,14.83
2019-05-18T06:08:45.851Z,15.47
2019-05-18T06:11:15.259Z,15.63
2019-05-18T06:13:44.574Z,15.63
2019-05-18T06:16:13.950Z,15.07
2019-05-18T06:18:43.710Z,16.73
2019-05-18T06:21:13.185Z,16.43
2019-05-18T06:23:42.690Z,16.30
2019-05-18T06:26:12.139Z,17.50
2019-05-18T06:28:41.516Z,17.30
2019-05-18T06:31:11.369Z,16.60
2019-05-18T06:33:40.899Z,17.43
2019-05-18T06:36:10.568Z,17.57
2019-05-18T06:38:39.876Z,17.60
2019-05-18T06:41:09.440Z,19.23
2019-05-18T06:43:40.790Z,16.97
2019-05-18T06:46:10.167Z,16.17
2019-05-18T06:48:39.579Z,16.80
2019-05-18T06:51:08.975Z,16.70
2019-05-18T06:53:38.377Z,16.07
2019-05-18T06:56:07.891Z,16.07
2019-05-18T06:58:37.281Z,15.33
2019-05-18T07:01:06.592Z,15.60
2019-05-18T07:03:35.993Z,15.50
2019-05-18T07:06:05.351Z,16.20
2019-05-18T07:08:34.758Z,16.27
2019-05-18T07:11:04.067Z,14.70
2019-05-18T07:13:33.432Z,14.77
2019-05-18T07:16:02.916Z,15.63
2019-05-18T07:18:32.227Z,14.57
2019-05-18T07:21:01.865Z,14.47
2019-05-18T07:23:31.178Z,15.33
2019-05-18T07:26:00.544Z,14.90
2019-05-18T07:28:30.056Z,14.20
2019-05-18T07:30:59.476Z,15.30
2019-05-18T07:33:28.845Z,14.97
2019-05-18T07:35:58.193Z,14.67
2019-05-18T07:38:27.556Z,14.70
2019-05-18T07:40:57.149Z,14.77
2019-05-18T07:43:26.599Z,13.80
2019-05-18T07:45:56.103Z,13.73
2019-05-18T07:48:25.490Z,14.17
2019-05-18T07:50:54.774Z,12.73
2019-05-18T07:53:24.364Z,13.20
2019-05-18T07:55:53.689Z,14.57
2019-05-18T07:58:23.096Z,12.87
2019-05-18T08:00:52.495Z,12.37
2019-05-18T08:03:21.892Z,12.27
2019-05-18T08:05:51.279Z,12.40
2019-05-18T08:08:20.746Z,11.40
2019-05-18T08:10:50.050Z,10.87
2019-05-18T08:13:20.866Z,10.13
2019-05-18T08:15:50.165Z,9.63
2019-05-18T08:18:21.654Z,9.50
2019-05-18T08:20:51.023Z,9.73
2019-05-18T08:23:20.523Z,8.80
2019-05-18T08:25:49.937Z,8.83
2019-05-18T08:28:21.720Z,9.20
2019-05-18T08:30:51.126Z,8.50
2019-05-18T08:33:20.977Z,6.93
2019-05-18T08:35:50.598Z,6.77
2019-05-18T08:38:19.919Z,6.47
2019-05-18T08:40:49.390Z,6.23
2019-05-18T08:43:20.871Z,5.70
2019-05-18T08:45:50.227Z,6.10
2019-05-18T08:48:22.899Z,6.67
2019-05-18T08:50:52.183Z,6.57
2019-05-18T08:53:21.636Z,7.07
2019-05-18T08:55:50.999Z,8.27
2019-05-18T08:58:20.525Z,7.27
2019-05-18T09:00:49.786Z,6.70
2019-05-18T09:03:20.759Z,6.90
2019-05-18T09:05:50.107Z,6.57
2019-05-18T09:08:19.482Z,5.87
2019-05-18T09:10:49.195Z,5.00
2019-05-18T09:13:18.751Z,4.23
2019-05-18T09:15:48.122Z,4.50
2019-05-18T09:18:17.661Z,4.03
2019-05-18T09:20:47.191Z,4.60
2019-05-18T09:23:16.566Z,5.13
2019-05-18T09:25:45.960Z,4.13
2019-05-18T09:28:15.346Z,4.20
2019-05-18T09:30:44.735Z,3.90
2019-05-18T09:33:14.084Z,3.73
2019-05-18T09:35:43.407Z,3.60
2019-05-18T09:38:12.830Z,3.60
2019-05-18T09:40:42.392Z,3.30
2019-05-18T09:43:11.662Z,3.43
2019-05-18T09:45:41.163Z,3.37
2019-05-18T09:48:10.696Z,2.90
2019-05-18T09:50:40.219Z,2.87
2019-05-18T09:53:09.903Z,3.00
2019-05-18T09:55:39.304Z,3.17
2019-05-18T09:58:08.980Z,2.93
2019-05-18T10:00:39.241Z,3.00
2019-05-18T10:03:09.115Z,2.90
2019-05-18T10:05:38.491Z,3.03
2019-05-18T10:08:08.046Z,3.07
2019-05-18T10:10:38.520Z,2.77
2019-05-18T10:13:08.328Z,3.10
2019-05-18T10:15:37.735Z,2.87
2019-05-18T10:18:07.052Z,3.30
2019-05-18T10:20:37.856Z,3.10
2019-05-18T10:23:12.857Z,2.80
2019-05-18T10:25:38.342Z,3.60
2019-05-18T10:28:07.689Z,3.00
2019-05-18T10:30:37.030Z,3.53
2019-05-18T10:33:06.442Z,3.17
2019-05-18T10:35:35.970Z,3.87
2019-05-18T10:38:05.358Z,4.00
2019-05-18T10:40:34.826Z,3.50
2019-05-18T10:43:04.122Z,3.60
2019-05-18T10:45:33.708Z,4.00
2019-05-18T10:48:03.315Z,3.40
2019-05-18T10:50:32.807Z,3.70
2019-05-18T10:53:02.206Z,3.87
2019-05-18T10:55:31.568Z,4.03
2019-05-18T10:58:01.038Z,4.10
2019-05-18T11:00:30.578Z,3.87
2019-05-18T11:03:00.115Z,3.90
2019-05-18T11:05:29.714Z,3.83
2019-05-18T11:07:59.128Z,3.90
2019-05-18T11:10:28.897Z,3.67
2019-05-18T11:12:58.296Z,3.90
2019-05-18T11:15:27.948Z,3.53
2019-05-18T11:17:57.350Z,3.83
2019-05-18T11:20:26.818Z,4.17
2019-05-18T11:22:56.278Z,4.27
2019-05-18T11:25:25.722Z,4.53
2019-05-18T11:27:55.098Z,4.17
2019-05-18T11:30:24.726Z,4.40
2019-05-18T11:32:54.066Z,4.37
2019-05-18T11:35:23.731Z,4.30
2019-05-18T11:37:53.269Z,4.20
2019-05-18T11:40:22.897Z,3.97
2019-05-18T11:42:52.268Z,5.20
2019-05-18T11:45:23.166Z,4.40
2019-05-18T11:47:52.502Z,4.70
2019-05-18T11:50:21.999Z,4.90
2019-05-18T11:52:51.402Z,5.13
2019-05-18T11:55:21.662Z,5.07
2019-05-18T11:57:51.055Z,4.57
2019-05-18T12:00:22.395Z,4.47
2019-05-18T12:02:51.628Z,4.90
2019-05-18T12:05:21.292Z,4.87
2019-05-18T12:07:50.681Z,4.53
2019-05-18T12:10:20.505Z,5.10
2019-05-18T12:12:50.026Z,5.70
2019-05-18T12:15:21.147Z,5.57
2019-05-18T12:17:50.572Z,5.50
2019-05-18T12:20:21.061Z,5.13
2019-05-18T12:22:50.441Z,5.37
2019-05-18T12:25:20.143Z,5.37
2019-05-18T12:27:49.733Z,5.77
2019-05-18T12:30:19.834Z,5.63
2019-05-18T12:32:50.184Z,5.60
2019-05-18T12:35:19.914Z,6.13
2019-05-18T12:37:49.553Z,6.23
2019-05-18T12:40:21.271Z,6.20
2019-05-18T12:42:50.699Z,5.50
2019-05-18T12:45:20.370Z,5.80
2019-05-18T12:47:49.668Z,6.07
2019-05-18T12:50:19.836Z,6.17
2019-05-18T12:52:49.384Z,5.67
2019-05-18T12:55:18.879Z,6.13
2019-05-18T12:57:48.464Z,6.33
2019-05-18T13:00:18.860Z,6.13
2019-05-18T13:02:48.190Z,6.47
2019-05-18T13:05:18.103Z,5.97
2019-05-18T13:07:47.601Z,5.60
2019-05-18T13:10:17.619Z,5.73
2019-05-18T13:12:47.281Z,5.63
2019-05-18T13:15:23.201Z,5.80
2019-05-18T13:17:52.881Z,6.20
2019-05-18T13:20:23.512Z,11.40
2019-05-18T13:22:52.951Z,11.20
2019-05-18T13:25:23.055Z,6.40
2019-05-18T13:27:52.409Z,5.67
2019-05-18T13:30:22.108Z,5.30
2019-05-18T13:32:51.602Z,5.60
2019-05-18T13:35:27.171Z,5.40
2019-05-18T13:37:56.579Z,6.00
2019-05-18T13:40:26.203Z,5.53
2019-05-18T13:42:55.623Z,5.60
2019-05-18T13:45:25.137Z,5.40
2019-05-18T13:47:55.975Z,5.67
2019-05-18T13:50:25.592Z,5.50
2019-05-18T13:52:55.293Z,5.70
2019-05-18T13:55:24.677Z,6.43
2019-05-18T13:57:54.067Z,4.90
2019-05-18T14:00:23.755Z,5.57
2019-05-18T14:02:53.130Z,5.93
2019-05-18T14:05:22.556Z,5.00
2019-05-18T14:07:52.086Z,5.87
2019-05-18T14:10:21.571Z,5.13
2019-05-18T14:12:51.243Z,5.13
2019-05-18T14:15:22.929Z,5.90
2019-05-18T14:17:51.916Z,5.77
2019-05-18T14:20:21.332Z,5.80
2019-05-18T14:22:50.700Z,5.37
2019-05-18T14:25:20.437Z,4.90
2019-05-18T14:27:49.919Z,4.80
2019-05-18T14:30:19.848Z,4.53
2019-05-18T14:32:49.186Z,5.30
2019-05-18T14:35:18.848Z,8.87
2019-05-18T14:37:48.293Z,5.77
2019-05-18T14:40:17.773Z,5.40
2019-05-18T14:42:47.479Z,5.43
2019-05-18T14:45:17.186Z,6.03
2019-05-18T14:47:46.758Z,6.03
2019-05-18T14:50:17.944Z,6.00
2019-05-18T14:52:47.443Z,5.50
2019-05-18T14:55:17.456Z,5.10
2019-05-18T14:57:46.851Z,5.10
2019-05-18T15:00:16.756Z,5.40
2019-05-18T15:02:46.218Z,4.87
2019-05-18T15:05:15.911Z,4.80
2019-05-18T15:07:46.055Z,4.37
2019-05-18T15:10:16.098Z,4.70
2019-05-18T15:12:45.635Z,4.90
2019-05-18T15:15:15.474Z,4.33
2019-05-18T15:17:45.004Z,4.30
2019-05-18T15:20:14.759Z,4.43
2019-05-18T15:22:44.234Z,4.57
2019-05-18T15:25:13.991Z,4.87
2019-05-18T15:27:43.441Z,4.40
2019-05-18T15:30:13.026Z,4.27
2019-05-18T15:32:42.443Z,4.60
2019-05-18T15:35:12.030Z,4.30
2019-05-18T15:37:43.692Z,4.60
2019-05-18T15:40:14.266Z,4.63
2019-05-18T15:42:43.687Z,4.90
2019-05-18T15:45:13.620Z,4.50
2019-05-18T15:47:43.212Z,4.67
2019-05-18T15:50:12.851Z,4.80
2019-05-18T15:52:42.413Z,4.67
2019-05-18T15:55:12.077Z,4.30
2019-05-18T15:57:41.493Z,4.73
2019-05-18T16:00:11.691Z,4.73
2019-05-18T16:02:41.096Z,4.80
2019-05-18T16:05:14.165Z,4.13
2019-05-18T16:07:43.637Z,4.40
2019-05-18T16:10:14.060Z,4.97
2019-05-18T16:12:43.629Z,5.47
2019-05-18T16:15:14.093Z,5.07
2019-05-18T16:17:43.376Z,4.83
2019-05-18T16:20:12.978Z,4.47
2019-05-18T16:22:44.352Z,4.20
2019-05-18T16:25:13.704Z,4.00
2019-05-18T16:27:43.062Z,4.00
2019-05-18T16:30:12.872Z,4.20
2019-05-18T16:32:42.224Z,4.20
2019-05-18T16:35:11.935Z,4.07
2019-05-18T16:37:41.529Z,3.80
2019-05-18T16:40:11.226Z,4.07
2019-05-18T16:42:40.879Z,4.50
2019-05-18T16:45:11.055Z,4.00
2019-05-18T16:47:40.490Z,4.40
2019-05-18T16:50:11.128Z,4.40
2019-05-18T16:52:43.954Z,4.90
2019-05-18T16:55:13.593Z,5.00
2019-05-18T16:57:42.997Z,4.50
2019-05-18T17:00:15.981Z,4.57
2019-05-18T17:02:44.811Z,4.70
2019-05-18T17:05:15.295Z,4.50
2019-05-18T17:07:44.805Z,4.20
2019-05-18T17:10:14.768Z,4.67
2019-05-18T17:12:44.207Z,5.07
2019-05-18T17:15:13.943Z,4.60
2019-05-18T17:17:43.361Z,4.30
2019-05-18T17:20:12.823Z,4.63
2019-05-18T17:22:42.242Z,4.37
2019-05-18T17:25:12.004Z,4.40
2019-05-18T17:27:41.564Z,4.77
2019-05-18T17:30:11.733Z,5.00
2019-05-18T17:32:41.117Z,4.63
2019-05-18T17:35:12.164Z,5.00
2019-05-18T17:37:41.758Z,4.57
2019-05-18T17:40:11.805Z,5.13
2019-05-18T17:42:43.910Z,5.60
2019-05-18T17:45:14.509Z,5.73
2019-05-18T17:47:43.925Z,5.23
2019-05-18T17:50:14.346Z,5.33
2019-05-18T17:52:43.735Z,5.60
2019-05-18T17:55:16.387Z,6.20
2019-05-18T17:57:44.888Z,6.23
2019-05-18T18:00:14.914Z,7.20
2019-05-18T18:02:47.860Z,6.77
2019-05-18T18:05:15.786Z,6.90
2019-05-18T18:07:45.246Z,6.47
2019-05-18T18:10:14.929Z,6.90
2019-05-18T18:12:44.356Z,7.23
2019-05-18T18:15:14.026Z,6.50
2019-05-18T18:17:43.381Z,10.83
2019-05-18T18:20:13.175Z,7.13
2019-05-18T18:22:42.519Z,7.30
2019-05-18T18:25:12.370Z,7.00
2019-05-18T18:27:41.891Z,6.47
2019-05-18T18:30:14.655Z,6.37
2019-05-18T18:32:44.038Z,6.87
2019-05-18T18:35:13.580Z,8.33
2019-05-18T18:37:43.138Z,8.50
2019-05-18T18:40:13.451Z,9.67
2019-05-18T18:42:42.867Z,9.23
2019-05-18T18:45:13.875Z,9.60
2019-05-18T18:47:43.282Z,9.33
2019-05-18T18:50:13.582Z,9.73
2019-05-18T18:52:43.911Z,9.47
2019-05-18T18:55:13.260Z,9.27
2019-05-18T18:57:42.687Z,8.90
2019-05-18T19:00:12.603Z,9.33
2019-05-18T19:02:42.034Z,9.03
2019-05-18T19:05:13.185Z,8.47
2019-05-18T19:07:42.776Z,7.87
2019-05-18T19:10:12.408Z,8.00
2019-05-18T19:12:41.935Z,7.60
2019-05-18T19:15:12.094Z,7.60
2019-05-18T19:17:45.281Z,7.23
2019-05-18T19:20:14.812Z,7.03
2019-05-18T19:22:44.327Z,6.63
2019-05-18T19:25:14.119Z,6.90
2019-05-18T19:27:54.694Z,6.80
2019-05-18T19:30:15.442Z,6.87
2019-05-18T19:32:44.933Z,6.93
2019-05-18T19:35:14.717Z,6.73
2019-05-18T19:37:44.266Z,7.10
2019-05-18T19:40:15.521Z,7.30
2019-05-18T19:42:45.014Z,7.40
2019-05-18T19:45:14.890Z,7.63
2019-05-18T19:47:44.333Z,7.57
2019-05-18T19:50:14.261Z,7.30
2019-05-18T19:52:43.759Z,7.47
2019-05-18T19:55:14.053Z,7.40
2019-05-18T19:57:43.563Z,7.47
2019-05-18T20:00:13.320Z,7.77
2019-05-18T20:02:42.749Z,7.93
2019-05-18T20:05:12.339Z,7.80
2019-05-18T20:07:44.728Z,7.70
2019-05-18T20:10:14.320Z,8.27
2019-05-18T20:12:43.750Z,8.70
2019-05-18T20:15:13.427Z,8.10
2019-05-18T20:17:42.881Z,8.27
2019-05-18T20:20:13.079Z,7.80
2019-05-18T20:22:42.530Z,7.40
2019-05-18T20:25:11.996Z,7.20
2019-05-18T20:27:41.661Z,7.07
2019-05-18T20:30:12.043Z,7.00
2019-05-18T20:32:41.897Z,7.07
2019-05-18T20:35:11.465Z,7.20
2019-05-18T20:37:40.879Z,7.37
2019-05-18T20:40:10.789Z,6.83
2019-05-18T20:42:40.137Z,6.97
2019-05-18T20:45:09.546Z,6.87
2019-05-18T20:47:38.955Z,6.70
2019-05-18T20:50:09.020Z,7.13
2019-05-18T20:52:38.507Z,6.57
2019-05-18T20:55:08.160Z,6.67
2019-05-18T20:57:37.954Z,6.80
2019-05-18T21:00:07.919Z,6.97
2019-05-18T21:02:37.531Z,6.53
2019-05-18T21:05:07.763Z,6.73
2019-05-18T21:07:37.096Z,7.00
2019-05-18T21:10:06.840Z,6.27
2019-05-18T21:12:36.419Z,6.53
2019-05-18T21:15:07.201Z,7.43
2019-05-18T21:17:36.679Z,7.63
2019-05-18T21:20:06.056Z,7.17
2019-05-18T21:22:35.876Z,7.27
2019-05-18T21:25:05.936Z,7.20
2019-05-18T21:27:35.371Z,7.70
2019-05-18T21:30:05.218Z,8.00
2019-05-18T21:32:34.880Z,7.23
2019-05-18T21:35:04.273Z,8.03
2019-05-18T21:37:33.809Z,7.23
2019-05-18T21:40:04.677Z,7.83
2019-05-18T21:42:34.075Z,7.97
2019-05-18T21:45:03.500Z,7.93
2019-05-18T21:47:32.877Z,8.13
2019-05-18T21:50:02.412Z,7.83
2019-05-18T21:52:31.872Z,7.73
2019-05-18T21:55:01.687Z,8.00
2019-05-18T21:57:31.169Z,7.70
2019-05-18T22:00:00.723Z,7.57
2019-05-18T22:02:30.155Z,8.03
2019-05-18T22:04:59.515Z,7.20
2019-05-18T22:07:28.893Z,7.37
2019-05-18T22:10:01.619Z,7.43
2019-05-18T22:12:30.965Z,7.53
2019-05-18T22:15:00.303Z,7.37
2019-05-18T22:17:29.638Z,7.17
2019-05-18T22:19:59.022Z,7.53
2019-05-18T22:22:28.286Z,7.40
2019-05-18T22:24:57.570Z,8.07
2019-05-18T22:27:26.944Z,7.43
2019-05-18T22:29:57.533Z,7.53
2019-05-18T22:32:26.858Z,8.17
2019-05-18T22:34:56.131Z,7.03
2019-05-18T22:37:25.591Z,8.27
2019-05-18T22:39:54.900Z,7.33
2019-05-18T22:42:24.882Z,8.57
2019-05-18T22:44:54.306Z,8.03
2019-05-18T22:47:23.679Z,8.17
2019-05-18T22:49:53.129Z,8.73
2019-05-18T22:52:22.531Z,8.00
2019-05-18T22:54:51.860Z,7.77
2019-05-18T22:57:21.188Z,8.17
2019-05-18T22:59:50.582Z,8.07
2019-05-18T23:02:19.953Z,8.70
2019-05-18T23:04:49.446Z,8.57
2019-05-18T23:07:18.822Z,8.83
2019-05-18T23:09:48.219Z,8.13
2019-05-18T23:12:17.548Z,8.47
2019-05-18T23:14:46.951Z,8.13
2019-05-18T23:17:16.427Z,8.90
2019-05-18T23:19:45.910Z,8.77
2019-05-18T23:22:15.797Z,7.90
2019-05-18T23:24:45.541Z,9.27
2019-05-18T23:27:15.389Z,8.10
2019-05-18T23:29:44.977Z,8.10
2019-05-18T23:32:14.557Z,8.50
2019-05-18T23:34:44.321Z,9.53
2019-05-18T23:37:14.321Z,9.03
2019-05-18T23:39:43.897Z,9.17
2019-05-18T23:42:13.327Z,10.23
2019-05-18T23:44:42.755Z,9.20
2019-05-18T23:47:12.167Z,9.30
2019-05-18T23:49:41.471Z,9.80
2019-05-18T23:52:10.790Z,9.57
2019-05-18T23:54:40.266Z,9.67
2019-05-18T23:57:09.734Z,10.13
2019-05-18T23:59:39.078Z,9.97
